Terminal Aerodrome Forecast
Issued by NWS Memphis, TN

Home | Current Version | Previous Version | Text Only | Print | Product List | Glossary On
Versions: 1 2 3 4 5 6 7 8 9 10 11 12 13 14 15 16 17
036
FTUS44 KMEG 300803 AAA
TAFJBR
TAF AMD
KJBR 300803Z 3008/3106 18010KT P6SM VCSH SCT060 BKN100
      WS020/21050KT
     FM301000 18012G18KT 6SM -SHRA SCT025 BKN050 WS020/21055KT
     FM301400 20015G22KT P6SM VCTS SCT025 BKN040CB
     FM301800 22015G22KT P6SM BKN040 OVC150
     FM310000 24008KT P6SM BKN040=

USA.gov is the U.S. government's official web portal to all federal, state and local government web resources and services.